Brandon, Wisconsin
Current Conditions -  °F | °C
As of 5:53 AM on Sunday 25 Jan 2015 (Local Time) from KFLD Reporting Station
Overcast Overcast  
Wind Chill: -12°   Ceiling: 2100
Heat Index: -5°   Visibility: 10mi
Dew Point: -9°   Wind: 16mph
Humidity: 72%   Direction: 40°NE
Pressure: 29.84"   Gusts: NA
Location:  43.74°N, 88.78°W
Report Text: KFLD 251153Z AUTO 04014KT 10SM BKN021 OVC034 M05/M09 A2984 RMK AO2 SLP116 T10501094 11017 21050 51014
Loading
Personal Weather Stations






























Interactive Weather Map New forecast layout! Learn more

10-Day Weather Forecast

Advertisements
Track Severe Weather on mobile